sensor_id;sensor_type;location;lat;lon;timestamp;P1;durP1;ratioP1;P2;durP2;ratioP2
9465;SDS011;4771;48.726;9.006;2024-03-23T00:54:39;9.00;;;3.70;;
9465;SDS011;4771;48.726;9.006;2024-03-23T00:57:06;5.07;;;3.38;;
9465;SDS011;4771;48.726;9.006;2024-03-23T00:59:32;5.70;;;3.47;;
9465;SDS011;4771;48.726;9.006;2024-03-23T01:01:59;4.93;;;3.40;;
9465;SDS011;4771;48.726;9.006;2024-03-23T01:04:25;6.32;;;3.50;;
9465;SDS011;4771;48.726;9.006;2024-03-23T01:06:52;5.30;;;3.50;;
9465;SDS011;4771;48.726;9.006;2024-03-23T01:09:17;4.88;;;3.33;;
9465;SDS011;4771;48.726;9.006;2024-03-23T01:11:46;5.05;;;3.03;;
9465;SDS011;4771;48.726;9.006;2024-03-23T01:14:11;4.03;;;2.95;;
9465;SDS011;4771;48.726;9.006;2024-03-23T01:16:38;3.70;;;2.80;;
9465;SDS011;4771;48.726;9.006;2024-03-23T01:19:04;4.20;;;2.88;;
9465;SDS011;4771;48.726;9.006;2024-03-23T01:21:31;6.95;;;3.13;;
9465;SDS011;4771;48.726;9.006;2024-03-23T01:23:57;4.68;;;3.05;;
9465;SDS011;4771;48.726;9.006;2024-03-23T01:26:24;5.35;;;2.80;;
9465;SDS011;4771;48.726;9.006;2024-03-23T01:28:51;4.90;;;2.70;;
9465;SDS011;4771;48.726;9.006;2024-03-23T01:31:18;3.97;;;3.10;;
9465;SDS011;4771;48.726;9.006;2024-03-23T01:33:44;8.02;;;3.20;;
9465;SDS011;4771;48.726;9.006;2024-03-23T01:36:11;6.03;;;3.05;;
9465;SDS011;4771;48.726;9.006;2024-03-23T01:38:37;3.47;;;2.60;;
9465;SDS011;4771;48.726;9.006;2024-03-23T01:41:04;4.07;;;2.65;;
9465;SDS011;4771;48.726;9.006;2024-03-23T01:43:30;4.57;;;2.40;;
9465;SDS011;4771;48.726;9.006;2024-03-23T01:45:58;4.32;;;2.30;;
9465;SDS011;4771;48.726;9.006;2024-03-23T01:48:24;4.07;;;2.80;;
9465;SDS011;4771;48.726;9.006;2024-03-23T01:50:51;2.65;;;2.40;;
9465;SDS011;4771;48.726;9.006;2024-03-23T01:53:17;2.55;;;2.20;;
9465;SDS011;4771;48.726;9.006;2024-03-23T01:55:46;3.35;;;2.38;;
9465;SDS011;4771;48.726;9.006;2024-03-23T01:58:12;4.88;;;2.55;;
9465;SDS011;4771;48.726;9.006;2024-03-23T02:00:39;3.22;;;2.60;;
9465;SDS011;4771;48.726;9.006;2024-03-23T02:05:51;3.13;;;2.50;;
9465;SDS011;4771;48.726;9.006;2024-03-23T02:08:18;4.07;;;2.63;;
9465;SDS011;4771;48.726;9.006;2024-03-23T02:10:48;3.67;;;2.20;;
9465;SDS011;4771;48.726;9.006;2024-03-23T02:13:14;3.97;;;2.70;;
9465;SDS011;4771;48.726;9.006;2024-03-23T02:15:41;2.70;;;2.25;;
9465;SDS011;4771;48.726;9.006;2024-03-23T02:18:07;5.75;;;2.22;;
9465;SDS011;4771;48.726;9.006;2024-03-23T02:20:36;3.38;;;2.30;;
9465;SDS011;4771;48.726;9.006;2024-03-23T02:23:03;3.17;;;2.50;;
9465;SDS011;4771;48.726;9.006;2024-03-23T02:25:31;4.40;;;2.35;;
9465;SDS011;4771;48.726;9.006;2024-03-23T02:27:57;4.85;;;2.60;;
9465;SDS011;4771;48.726;9.006;2024-03-23T02:30:24;5.82;;;2.90;;
9465;SDS011;4771;48.726;9.006;2024-03-23T02:32:50;3.30;;;2.38;;
9465;SDS011;4771;48.726;9.006;2024-03-23T02:35:17;3.50;;;2.33;;
9465;SDS011;4771;48.726;9.006;2024-03-23T02:37:43;3.63;;;2.42;;
9465;SDS011;4771;48.726;9.006;2024-03-23T02:40:13;3.83;;;2.42;;
9465;SDS011;4771;48.726;9.006;2024-03-23T02:42:39;2.95;;;2.47;;
9465;SDS011;4771;48.726;9.006;2024-03-23T02:45:06;4.80;;;2.22;;
9465;SDS011;4771;48.726;9.006;2024-03-23T02:47:32;2.83;;;2.28;;
9465;SDS011;4771;48.726;9.006;2024-03-23T02:49:59;4.43;;;2.50;;
9465;SDS011;4771;48.726;9.006;2024-03-23T02:52:25;5.32;;;2.65;;
9465;SDS011;4771;48.726;9.006;2024-03-23T02:54:52;3.58;;;2.20;;
9465;SDS011;4771;48.726;9.006;2024-03-23T02:57:19;2.80;;;2.13;;
9465;SDS011;4771;48.726;9.006;2024-03-23T02:59:46;5.28;;;2.40;;
9465;SDS011;4771;48.726;9.006;2024-03-23T03:02:12;2.45;;;2.13;;
9465;SDS011;4771;48.726;9.006;2024-03-23T03:04:39;3.60;;;2.55;;
9465;SDS011;4771;48.726;9.006;2024-03-23T03:07:05;3.05;;;2.20;;
9465;SDS011;4771;48.726;9.006;2024-03-23T03:09:32;2.78;;;2.17;;
9465;SDS011;4771;48.726;9.006;2024-03-23T03:12:00;2.90;;;2.00;;
9465;SDS011;4771;48.726;9.006;2024-03-23T03:14:28;4.43;;;2.33;;
9465;SDS011;4771;48.726;9.006;2024-03-23T03:16:54;3.17;;;2.00;;
9465;SDS011;4771;48.726;9.006;2024-03-23T03:19:21;3.70;;;2.35;;
9465;SDS011;4771;48.726;9.006;2024-03-23T03:21:47;3.97;;;2.35;;
9465;SDS011;4771;48.726;9.006;2024-03-23T03:24:14;4.30;;;2.50;;
9465;SDS011;4771;48.726;9.006;2024-03-23T03:26:40;3.30;;;2.33;;
9465;SDS011;4771;48.726;9.006;2024-03-23T03:29:07;2.85;;;2.17;;
9465;SDS011;4771;48.726;9.006;2024-03-23T03:31:34;4.70;;;2.30;;
9465;SDS011;4771;48.726;9.006;2024-03-23T03:34:01;4.53;;;2.40;;
9465;SDS011;4771;48.726;9.006;2024-03-23T03:36:27;3.00;;;2.50;;
9465;SDS011;4771;48.726;9.006;2024-03-23T03:38:54;4.55;;;2.03;;
9465;SDS011;4771;48.726;9.006;2024-03-23T03:41:20;4.13;;;2.35;;
9465;SDS011;4771;48.726;9.006;2024-03-23T03:43:47;4.25;;;2.30;;
9465;SDS011;4771;48.726;9.006;2024-03-23T03:46:13;3.60;;;2.40;;
9465;SDS011;4771;48.726;9.006;2024-03-23T03:48:41;4.70;;;2.60;;
9465;SDS011;4771;48.726;9.006;2024-03-23T03:51:07;3.35;;;1.92;;
9465;SDS011;4771;48.726;9.006;2024-03-23T03:53:34;3.22;;;2.13;;
9465;SDS011;4771;48.726;9.006;2024-03-23T03:56:00;3.25;;;2.30;;
9465;SDS011;4771;48.726;9.006;2024-03-23T03:58:28;4.45;;;2.10;;
9465;SDS011;4771;48.726;9.006;2024-03-23T04:00:53;4.63;;;2.17;;
9465;SDS011;4771;48.726;9.006;2024-03-23T04:03:20;3.10;;;2.30;;
9465;SDS011;4771;48.726;9.006;2024-03-23T04:05:51;2.30;;;2.00;;
9465;SDS011;4771;48.726;9.006;2024-03-23T04:08:19;5.90;;;2.47;;
9465;SDS011;4771;48.726;9.006;2024-03-23T04:10:45;3.17;;;2.30;;
9465;SDS011;4771;48.726;9.006;2024-03-23T04:13:11;2.50;;;1.98;;
9465;SDS011;4771;48.726;9.006;2024-03-23T04:15:37;5.40;;;2.30;;
9465;SDS011;4771;48.726;9.006;2024-03-23T04:18:04;3.25;;;2.08;;
9465;SDS011;4771;48.726;9.006;2024-03-23T04:20:30;3.13;;;2.00;;
9465;SDS011;4771;48.726;9.006;2024-03-23T04:22:59;2.42;;;1.98;;
9465;SDS011;4771;48.726;9.006;2024-03-23T04:25:25;3.33;;;2.33;;
9465;SDS011;4771;48.726;9.006;2024-03-23T04:27:52;3.80;;;2.38;;
9465;SDS011;4771;48.726;9.006;2024-03-23T04:30:18;3.20;;;2.25;;
9465;SDS011;4771;48.726;9.006;2024-03-23T04:32:46;2.75;;;2.38;;
9465;SDS011;4771;48.726;9.006;2024-03-23T04:35:12;2.95;;;2.35;;
9465;SDS011;4771;48.726;9.006;2024-03-23T04:37:39;4.43;;;2.47;;
9465;SDS011;4771;48.726;9.006;2024-03-23T04:40:08;2.75;;;2.00;;
9465;SDS011;4771;48.726;9.006;2024-03-23T04:42:36;3.47;;;2.42;;
9465;SDS011;4771;48.726;9.006;2024-03-23T04:45:03;7.60;;;2.63;;
9465;SDS011;4771;48.726;9.006;2024-03-23T04:47:31;3.50;;;2.40;;
9465;SDS011;4771;48.726;9.006;2024-03-23T04:50:00;4.35;;;2.80;;
9465;SDS011;4771;48.726;9.006;2024-03-23T04:52:27;5.57;;;3.38;;
9465;SDS011;4771;48.726;9.006;2024-03-23T04:54:54;7.38;;;3.47;;
9465;SDS011;4771;48.726;9.006;2024-03-23T04:57:22;5.53;;;4.07;;
9465;SDS011;4771;48.726;9.006;2024-03-23T04:59:48;5.18;;;4.18;;
9465;SDS011;4771;48.726;9.006;2024-03-23T05:02:15;6.45;;;4.75;;
9465;SDS011;4771;48.726;9.006;2024-03-23T05:04:41;7.35;;;5.15;;
9465;SDS011;4771;48.726;9.006;2024-03-23T05:07:08;7.93;;;5.40;;
9465;SDS011;4771;48.726;9.006;2024-03-23T05:09:34;7.22;;;5.78;;
9465;SDS011;4771;48.726;9.006;2024-03-23T05:12:01;10.48;;;6.80;;
9465;SDS011;4771;48.726;9.006;2024-03-23T05:14:29;9.35;;;6.65;;
9465;SDS011;4771;48.726;9.006;2024-03-23T05:16:55;11.02;;;8.30;;
9465;SDS011;4771;48.726;9.006;2024-03-23T05:19:21;10.75;;;8.32;;
9465;SDS011;4771;48.726;9.006;2024-03-23T05:21:48;14.10;;;8.57;;
9465;SDS011;4771;48.726;9.006;2024-03-23T05:24:14;11.40;;;8.70;;
9465;SDS011;4771;48.726;9.006;2024-03-23T05:26:41;10.23;;;8.32;;
9465;SDS011;4771;48.726;9.006;2024-03-23T05:29:07;12.23;;;9.33;;
9465;SDS011;4771;48.726;9.006;2024-03-23T05:31:37;12.40;;;9.30;;
9465;SDS011;4771;48.726;9.006;2024-03-23T05:34:03;11.57;;;8.68;;
9465;SDS011;4771;48.726;9.006;2024-03-23T05:36:30;12.67;;;8.83;;
9465;SDS011;4771;48.726;9.006;2024-03-23T05:38:57;11.43;;;8.67;;
9465;SDS011;4771;48.726;9.006;2024-03-23T05:41:24;10.57;;;8.20;;
9465;SDS011;4771;48.726;9.006;2024-03-23T05:43:50;12.00;;;8.17;;
9465;SDS011;4771;48.726;9.006;2024-03-23T05:46:17;9.23;;;8.10;;
9465;SDS011;4771;48.726;9.006;2024-03-23T05:48:44;9.87;;;7.17;;
9465;SDS011;4771;48.726;9.006;2024-03-23T05:51:11;9.97;;;6.73;;
9465;SDS011;4771;48.726;9.006;2024-03-23T05:53:37;8.13;;;6.20;;
9465;SDS011;4771;48.726;9.006;2024-03-23T05:56:04;8.10;;;5.53;;
9465;SDS011;4771;48.726;9.006;2024-03-23T05:58:31;6.10;;;4.60;;
9465;SDS011;4771;48.726;9.006;2024-03-23T06:00:58;4.70;;;3.67;;
9465;SDS011;4771;48.726;9.006;2024-03-23T06:03:25;4.20;;;3.20;;
9465;SDS011;4771;48.726;9.006;2024-03-23T06:05:53;4.67;;;3.40;;
9465;SDS011;4771;48.726;9.006;2024-03-23T06:08:19;3.50;;;2.67;;
9465;SDS011;4771;48.726;9.006;2024-03-23T06:10:46;3.50;;;2.60;;
9465;SDS011;4771;48.726;9.006;2024-03-23T06:13:12;2.37;;;2.17;;
9465;SDS011;4771;48.726;9.006;2024-03-23T06:15:39;4.03;;;2.27;;
9465;SDS011;4771;48.726;9.006;2024-03-23T06:18:05;2.50;;;2.07;;
9465;SDS011;4771;48.726;9.006;2024-03-23T06:20:33;2.47;;;2.10;;
9465;SDS011;4771;48.726;9.006;2024-03-23T06:23:00;2.57;;;2.23;;
9465;SDS011;4771;48.726;9.006;2024-03-23T06:25:28;2.47;;;2.00;;
9465;SDS011;4771;48.726;9.006;2024-03-23T06:27:54;2.17;;;1.80;;
9465;SDS011;4771;48.726;9.006;2024-03-23T06:30:21;2.17;;;1.70;;
9465;SDS011;4771;48.726;9.006;2024-03-23T06:32:47;2.70;;;2.20;;
9465;SDS011;4771;48.726;9.006;2024-03-23T06:35:14;6.67;;;4.03;;
9465;SDS011;4771;48.726;9.006;2024-03-23T06:37:39;4.77;;;3.53;;
9465;SDS011;4771;48.726;9.006;2024-03-23T06:40:08;2.80;;;1.70;;
9465;SDS011;4771;48.726;9.006;2024-03-23T06:42:35;3.80;;;3.07;;
9465;SDS011;4771;48.726;9.006;2024-03-23T06:45:02;3.30;;;1.70;;
9465;SDS011;4771;48.726;9.006;2024-03-23T06:47:30;2.53;;;1.80;;
9465;SDS011;4771;48.726;9.006;2024-03-23T06:49:57;2.33;;;1.30;;
9465;SDS011;4771;48.726;9.006;2024-03-23T06:52:23;1.10;;;1.00;;
9465;SDS011;4771;48.726;9.006;2024-03-23T06:54:50;8.93;;;7.03;;
9465;SDS011;4771;48.726;9.006;2024-03-23T06:57:17;2.93;;;2.13;;
9465;SDS011;4771;48.726;9.006;2024-03-23T06:59:44;1.30;;;1.20;;
9465;SDS011;4771;48.726;9.006;2024-03-23T07:02:09;3.30;;;3.00;;
9465;SDS011;4771;48.726;9.006;2024-03-23T07:04:36;1.10;;;1.00;;
9465;SDS011;4771;48.726;9.006;2024-03-23T07:07:04;2.37;;;2.10;;
9465;SDS011;4771;48.726;9.006;2024-03-23T07:09:31;4.30;;;2.90;;
9465;SDS011;4771;48.726;9.006;2024-03-23T07:11:57;3.33;;;2.30;;
9465;SDS011;4771;48.726;9.006;2024-03-23T07:14:25;0.90;;;0.90;;
9465;SDS011;4771;48.726;9.006;2024-03-23T07:16:51;0.70;;;0.70;;
9465;SDS011;4771;48.726;9.006;2024-03-23T07:19:18;0.80;;;0.80;;
9465;SDS011;4771;48.726;9.006;2024-03-23T07:21:44;0.93;;;0.90;;
9465;SDS011;4771;48.726;9.006;2024-03-23T07:24:13;0.80;;;0.80;;
9465;SDS011;4771;48.726;9.006;2024-03-23T07:26:39;0.80;;;0.80;;
9465;SDS011;4771;48.726;9.006;2024-03-23T07:29:06;0.77;;;0.77;;
9465;SDS011;4771;48.726;9.006;2024-03-23T07:31:33;0.80;;;0.80;;
9465;SDS011;4771;48.726;9.006;2024-03-23T07:34:00;0.83;;;0.83;;
9465;SDS011;4771;48.726;9.006;2024-03-23T07:36:26;0.70;;;0.70;;
9465;SDS011;4771;48.726;9.006;2024-03-23T07:38:53;0.70;;;0.70;;
9465;SDS011;4771;48.726;9.006;2024-03-23T07:41:19;0.70;;;0.70;;
9465;SDS011;4771;48.726;9.006;2024-03-23T07:43:46;1.20;;;0.60;;
9465;SDS011;4771;48.726;9.006;2024-03-23T07:46:14;1.10;;;0.80;;
9465;SDS011;4771;48.726;9.006;2024-03-23T07:48:43;0.80;;;0.80;;
9465;SDS011;4771;48.726;9.006;2024-03-23T07:51:10;0.80;;;0.80;;
9465;SDS011;4771;48.726;9.006;2024-03-23T07:53:43;0.90;;;0.80;;
9465;SDS011;4771;48.726;9.006;2024-03-23T07:56:09;0.80;;;0.80;;
9465;SDS011;4771;48.726;9.006;2024-03-23T07:58:37;0.87;;;0.77;;
9465;SDS011;4771;48.726;9.006;2024-03-23T08:01:03;2.13;;;0.90;;
9465;SDS011;4771;48.726;9.006;2024-03-23T08:03:32;0.80;;;0.80;;
9465;SDS011;4771;48.726;9.006;2024-03-23T08:06:07;0.80;;;0.80;;
9465;SDS011;4771;48.726;9.006;2024-03-23T08:08:34;0.90;;;0.90;;
9465;SDS011;4771;48.726;9.006;2024-03-23T08:11:00;0.93;;;0.93;;
9465;SDS011;4771;48.726;9.006;2024-03-23T08:13:28;1.53;;;0.90;;
9465;SDS011;4771;48.726;9.006;2024-03-23T08:15:56;0.70;;;0.70;;
9465;SDS011;4771;48.726;9.006;2024-03-23T08:18:23;0.90;;;0.90;;
9465;SDS011;4771;48.726;9.006;2024-03-23T08:20:55;2.03;;;1.30;;
9465;SDS011;4771;48.726;9.006;2024-03-23T08:23:23;1.50;;;1.30;;
9465;SDS011;4771;48.726;9.006;2024-03-23T08:25:49;2.07;;;1.13;;
9465;SDS011;4771;48.726;9.006;2024-03-23T08:28:16;3.93;;;1.37;;
9465;SDS011;4771;48.726;9.006;2024-03-23T08:30:42;2.23;;;1.43;;
9465;SDS011;4771;48.726;9.006;2024-03-23T08:33:09;1.93;;;1.30;;
9465;SDS011;4771;48.726;9.006;2024-03-23T08:35:35;2.23;;;1.70;;
9465;SDS011;4771;48.726;9.006;2024-03-23T08:38:02;2.97;;;1.50;;
9465;SDS011;4771;48.726;9.006;2024-03-23T08:40:30;2.30;;;1.40;;
9465;SDS011;4771;48.726;9.006;2024-03-23T08:42:56;1.43;;;1.30;;
9465;SDS011;4771;48.726;9.006;2024-03-23T08:45:23;2.10;;;1.83;;
9465;SDS011;4771;48.726;9.006;2024-03-23T08:47:50;3.70;;;1.67;;
9465;SDS011;4771;48.726;9.006;2024-03-23T08:50:16;2.37;;;1.30;;
9465;SDS011;4771;48.726;9.006;2024-03-23T08:52:43;2.20;;;1.30;;
9465;SDS011;4771;48.726;9.006;2024-03-23T08:55:09;3.80;;;1.77;;
9465;SDS011;4771;48.726;9.006;2024-03-23T08:57:37;3.70;;;1.90;;
9465;SDS011;4771;48.726;9.006;2024-03-23T09:00:04;3.20;;;1.83;;
9465;SDS011;4771;48.726;9.006;2024-03-23T09:02:34;3.83;;;2.10;;
9465;SDS011;4771;48.726;9.006;2024-03-23T09:05:00;2.47;;;1.93;;
9465;SDS011;4771;48.726;9.006;2024-03-23T09:07:29;5.30;;;2.03;;
9465;SDS011;4771;48.726;9.006;2024-03-23T09:09:55;7.93;;;2.53;;
9465;SDS011;4771;48.726;9.006;2024-03-23T09:12:22;3.07;;;2.37;;
9465;SDS011;4771;48.726;9.006;2024-03-23T09:14:50;3.87;;;2.60;;
9465;SDS011;4771;48.726;9.006;2024-03-23T09:17:18;4.93;;;2.50;;
9465;SDS011;4771;48.726;9.006;2024-03-23T09:19:44;6.90;;;2.70;;
9465;SDS011;4771;48.726;9.006;2024-03-23T09:22:11;6.27;;;2.70;;
9465;SDS011;4771;48.726;9.006;2024-03-23T09:24:38;5.33;;;3.00;;
9465;SDS011;4771;48.726;9.006;2024-03-23T09:27:05;6.83;;;3.03;;
9465;SDS011;4771;48.726;9.006;2024-03-23T09:29:31;6.40;;;2.97;;
9465;SDS011;4771;48.726;9.006;2024-03-23T09:31:59;8.00;;;2.93;;
9465;SDS011;4771;48.726;9.006;2024-03-23T09:34:25;8.77;;;3.10;;
9465;SDS011;4771;48.726;9.006;2024-03-23T09:36:52;5.43;;;2.83;;
9465;SDS011;4771;48.726;9.006;2024-03-23T09:39:18;5.67;;;2.97;;
9465;SDS011;4771;48.726;9.006;2024-03-23T09:41:45;7.13;;;3.00;;
9465;SDS011;4771;48.726;9.006;2024-03-23T09:44:11;7.03;;;2.90;;
9465;SDS011;4771;48.726;9.006;2024-03-23T09:46:38;5.70;;;2.90;;
9465;SDS011;4771;48.726;9.006;2024-03-23T09:49:06;6.23;;;3.10;;
9465;SDS011;4771;48.726;9.006;2024-03-23T09:51:35;6.10;;;2.93;;
9465;SDS011;4771;48.726;9.006;2024-03-23T09:54:01;7.83;;;3.40;;
9465;SDS011;4771;48.726;9.006;2024-03-23T09:56:28;5.90;;;2.90;;
9465;SDS011;4771;48.726;9.006;2024-03-23T09:58:59;5.77;;;2.73;;
9465;SDS011;4771;48.726;9.006;2024-03-23T10:01:27;7.37;;;3.07;;
9465;SDS011;4771;48.726;9.006;2024-03-23T10:03:55;6.87;;;3.10;;
9465;SDS011;4771;48.726;9.006;2024-03-23T10:06:23;7.73;;;2.83;;
9465;SDS011;4771;48.726;9.006;2024-03-23T10:08:50;6.73;;;2.70;;
9465;SDS011;4771;48.726;9.006;2024-03-23T10:11:18;5.47;;;2.50;;
9465;SDS011;4771;48.726;9.006;2024-03-23T10:13:44;5.43;;;2.83;;
9465;SDS011;4771;48.726;9.006;2024-03-23T10:16:12;7.90;;;2.77;;
9465;SDS011;4771;48.726;9.006;2024-03-23T10:18:47;5.63;;;2.50;;
9465;SDS011;4771;48.726;9.006;2024-03-23T10:21:14;3.83;;;2.47;;
9465;SDS011;4771;48.726;9.006;2024-03-23T10:23:43;8.30;;;2.90;;
9465;SDS011;4771;48.726;9.006;2024-03-23T10:26:13;5.93;;;2.37;;
9465;SDS011;4771;48.726;9.006;2024-03-23T10:28:51;7.10;;;2.80;;
9465;SDS011;4771;48.726;9.006;2024-03-23T10:31:18;6.17;;;2.90;;
9465;SDS011;4771;48.726;9.006;2024-03-23T10:33:45;7.73;;;3.30;;
9465;SDS011;4771;48.726;9.006;2024-03-23T10:36:11;7.83;;;3.10;;
9465;SDS011;4771;48.726;9.006;2024-03-23T10:38:39;6.33;;;2.80;;
9465;SDS011;4771;48.726;9.006;2024-03-23T10:41:07;10.30;;;3.60;;
9465;SDS011;4771;48.726;9.006;2024-03-23T10:43:35;8.37;;;2.93;;
9465;SDS011;4771;48.726;9.006;2024-03-23T10:46:01;8.10;;;3.53;;
9465;SDS011;4771;48.726;9.006;2024-03-23T10:48:29;7.20;;;3.60;;
9465;SDS011;4771;48.726;9.006;2024-03-23T10:50:54;7.77;;;3.67;;
9465;SDS011;4771;48.726;9.006;2024-03-23T10:53:22;6.00;;;3.00;;
9465;SDS011;4771;48.726;9.006;2024-03-23T10:55:51;4.13;;;2.73;;
9465;SDS011;4771;48.726;9.006;2024-03-23T10:58:23;9.17;;;3.03;;
9465;SDS011;4771;48.726;9.006;2024-03-23T11:00:52;10.80;;;3.23;;
9465;SDS011;4771;48.726;9.006;2024-03-23T11:03:29;7.00;;;4.00;;
9465;SDS011;4771;48.726;9.006;2024-03-23T11:05:59;9.63;;;3.77;;
9465;SDS011;4771;48.726;9.006;2024-03-23T11:08:34;10.27;;;3.67;;
9465;SDS011;4771;48.726;9.006;2024-03-23T11:11:13;12.43;;;3.70;;
9465;SDS011;4771;48.726;9.006;2024-03-23T11:13:44;5.90;;;3.17;;
9465;SDS011;4771;48.726;9.006;2024-03-23T11:16:14;7.50;;;3.60;;
9465;SDS011;4771;48.726;9.006;2024-03-23T11:18:42;7.53;;;3.70;;
9465;SDS011;4771;48.726;9.006;2024-03-23T11:21:08;14.03;;;8.67;;
9465;SDS011;4771;48.726;9.006;2024-03-23T11:23:36;7.73;;;3.30;;
9465;SDS011;4771;48.726;9.006;2024-03-23T11:26:01;6.37;;;3.77;;
9465;SDS011;4771;48.726;9.006;2024-03-23T11:28:32;5.83;;;2.50;;
9465;SDS011;4771;48.726;9.006;2024-03-23T11:31:00;12.20;;;6.50;;
9465;SDS011;4771;48.726;9.006;2024-03-23T11:33:27;10.93;;;3.77;;
9465;SDS011;4771;48.726;9.006;2024-03-23T11:35:54;6.27;;;2.80;;
9465;SDS011;4771;48.726;9.006;2024-03-23T11:38:21;5.53;;;2.83;;
9465;SDS011;4771;48.726;9.006;2024-03-23T11:40:47;6.67;;;2.97;;
9465;SDS011;4771;48.726;9.006;2024-03-23T11:43:15;8.17;;;2.93;;
9465;SDS011;4771;48.726;9.006;2024-03-23T11:45:42;10.53;;;4.60;;
9465;SDS011;4771;48.726;9.006;2024-03-23T11:48:11;4.77;;;3.33;;
9465;SDS011;4771;48.726;9.006;2024-03-23T11:50:39;5.70;;;2.10;;
9465;SDS011;4771;48.726;9.006;2024-03-23T11:53:08;4.07;;;1.90;;
9465;SDS011;4771;48.726;9.006;2024-03-23T11:55:39;5.23;;;1.87;;
9465;SDS011;4771;48.726;9.006;2024-03-23T11:58:06;4.87;;;1.70;;
9465;SDS011;4771;48.726;9.006;2024-03-23T12:00:33;3.43;;;1.90;;
9465;SDS011;4771;48.726;9.006;2024-03-23T12:03:03;7.43;;;2.30;;
9465;SDS011;4771;48.726;9.006;2024-03-23T12:05:32;6.67;;;2.37;;
9465;SDS011;4771;48.726;9.006;2024-03-23T12:08:15;3.97;;;1.97;;
9465;SDS011;4771;48.726;9.006;2024-03-23T12:10:47;3.60;;;1.83;;
9465;SDS011;4771;48.726;9.006;2024-03-23T12:13:15;7.73;;;2.00;;
9465;SDS011;4771;48.726;9.006;2024-03-23T12:15:43;5.47;;;1.70;;
9465;SDS011;4771;48.726;9.006;2024-03-23T12:18:10;4.97;;;2.00;;
9465;SDS011;4771;48.726;9.006;2024-03-23T12:20:38;4.10;;;2.20;;
9465;SDS011;4771;48.726;9.006;2024-03-23T12:23:06;6.00;;;1.80;;
9465;SDS011;4771;48.726;9.006;2024-03-23T12:25:33;7.57;;;2.10;;
9465;SDS011;4771;48.726;9.006;2024-03-23T12:28:00;7.60;;;2.30;;
9465;SDS011;4771;48.726;9.006;2024-03-23T12:30:27;7.93;;;2.03;;
9465;SDS011;4771;48.726;9.006;2024-03-23T12:32:53;5.57;;;2.30;;
9465;SDS011;4771;48.726;9.006;2024-03-23T12:35:19;8.27;;;2.70;;
9465;SDS011;4771;48.726;9.006;2024-03-23T12:37:48;5.40;;;2.20;;
9465;SDS011;4771;48.726;9.006;2024-03-23T12:40:14;5.97;;;2.50;;
9465;SDS011;4771;48.726;9.006;2024-03-23T12:42:41;6.37;;;2.57;;
9465;SDS011;4771;48.726;9.006;2024-03-23T12:45:07;7.63;;;2.30;;
9465;SDS011;4771;48.726;9.006;2024-03-23T12:47:34;6.90;;;2.43;;
9465;SDS011;4771;48.726;9.006;2024-03-23T12:50:00;9.50;;;2.70;;
9465;SDS011;4771;48.726;9.006;2024-03-23T12:52:27;6.90;;;2.37;;
9465;SDS011;4771;48.726;9.006;2024-03-23T12:54:56;8.23;;;2.80;;
9465;SDS011;4771;48.726;9.006;2024-03-23T12:57:23;5.20;;;2.47;;
9465;SDS011;4771;48.726;9.006;2024-03-23T12:59:49;10.03;;;2.67;;
9465;SDS011;4771;48.726;9.006;2024-03-23T13:02:18;7.97;;;2.43;;
9465;SDS011;4771;48.726;9.006;2024-03-23T13:04:44;10.77;;;2.70;;
9465;SDS011;4771;48.726;9.006;2024-03-23T13:07:12;6.77;;;2.33;;
9465;SDS011;4771;48.726;9.006;2024-03-23T13:09:38;6.57;;;2.23;;
9465;SDS011;4771;48.726;9.006;2024-03-23T13:12:07;6.53;;;2.00;;
9465;SDS011;4771;48.726;9.006;2024-03-23T13:14:33;5.87;;;2.00;;
9465;SDS011;4771;48.726;9.006;2024-03-23T13:17:00;3.43;;;1.40;;
9465;SDS011;4771;48.726;9.006;2024-03-23T13:19:27;3.60;;;1.43;;
9465;SDS011;4771;48.726;9.006;2024-03-23T13:21:55;2.57;;;1.40;;
9465;SDS011;4771;48.726;9.006;2024-03-23T13:24:22;1.73;;;1.10;;
9465;SDS011;4771;48.726;9.006;2024-03-23T13:26:49;2.60;;;1.17;;
9465;SDS011;4771;48.726;9.006;2024-03-23T13:29:17;3.50;;;1.10;;
9465;SDS011;4771;48.726;9.006;2024-03-23T13:31:44;1.83;;;1.20;;
9465;SDS011;4771;48.726;9.006;2024-03-23T13:34:10;2.43;;;1.47;;
9465;SDS011;4771;48.726;9.006;2024-03-23T13:36:38;2.10;;;1.10;;
9465;SDS011;4771;48.726;9.006;2024-03-23T13:39:04;3.27;;;1.20;;
9465;SDS011;4771;48.726;9.006;2024-03-23T13:41:36;3.23;;;1.30;;
9465;SDS011;4771;48.726;9.006;2024-03-23T13:44:03;2.87;;;1.07;;
9465;SDS011;4771;48.726;9.006;2024-03-23T13:46:31;4.40;;;1.40;;
9465;SDS011;4771;48.726;9.006;2024-03-23T13:48:57;4.50;;;1.50;;
9465;SDS011;4771;48.726;9.006;2024-03-23T13:51:24;3.87;;;1.10;;
9465;SDS011;4771;48.726;9.006;2024-03-23T13:53:52;1.70;;;1.30;;
9465;SDS011;4771;48.726;9.006;2024-03-23T13:56:19;2.20;;;1.40;;
9465;SDS011;4771;48.726;9.006;2024-03-23T13:58:45;3.43;;;1.30;;
9465;SDS011;4771;48.726;9.006;2024-03-23T14:01:13;3.43;;;1.40;;
9465;SDS011;4771;48.726;9.006;2024-03-23T14:03:40;3.73;;;1.50;;
9465;SDS011;4771;48.726;9.006;2024-03-23T14:06:07;3.90;;;1.37;;
9465;SDS011;4771;48.726;9.006;2024-03-23T14:08:34;3.37;;;1.70;;
9465;SDS011;4771;48.726;9.006;2024-03-23T14:11:04;3.03;;;1.20;;
9465;SDS011;4771;48.726;9.006;2024-03-23T14:13:30;3.67;;;1.30;;
9465;SDS011;4771;48.726;9.006;2024-03-23T14:15:57;2.77;;;1.30;;
9465;SDS011;4771;48.726;9.006;2024-03-23T14:18:23;2.77;;;1.33;;
9465;SDS011;4771;48.726;9.006;2024-03-23T14:20:55;3.23;;;1.40;;
9465;SDS011;4771;48.726;9.006;2024-03-23T14:23:23;5.83;;;1.70;;
9465;SDS011;4771;48.726;9.006;2024-03-23T14:25:52;4.30;;;1.50;;
9465;SDS011;4771;48.726;9.006;2024-03-23T14:28:19;3.17;;;1.40;;
9465;SDS011;4771;48.726;9.006;2024-03-23T14:30:47;3.83;;;1.70;;
9465;SDS011;4771;48.726;9.006;2024-03-23T14:33:13;2.17;;;1.20;;
9465;SDS011;4771;48.726;9.006;2024-03-23T14:35:40;3.30;;;1.40;;
9465;SDS011;4771;48.726;9.006;2024-03-23T14:38:07;5.80;;;1.70;;
9465;SDS011;4771;48.726;9.006;2024-03-23T14:40:34;5.63;;;1.60;;
9465;SDS011;4771;48.726;9.006;2024-03-23T14:43:00;4.17;;;1.40;;
9465;SDS011;4771;48.726;9.006;2024-03-23T14:45:27;7.03;;;3.40;;
9465;SDS011;4771;48.726;9.006;2024-03-23T14:47:53;5.07;;;2.10;;
9465;SDS011;4771;48.726;9.006;2024-03-23T14:50:20;3.23;;;1.50;;
9465;SDS011;4771;48.726;9.006;2024-03-23T14:52:46;2.03;;;1.30;;
9465;SDS011;4771;48.726;9.006;2024-03-23T14:55:15;2.27;;;1.20;;
9465;SDS011;4771;48.726;9.006;2024-03-23T14:57:42;4.23;;;1.60;;
9465;SDS011;4771;48.726;9.006;2024-03-23T15:00:09;4.23;;;1.60;;
9465;SDS011;4771;48.726;9.006;2024-03-23T15:02:37;3.77;;;1.50;;
9465;SDS011;4771;48.726;9.006;2024-03-23T15:05:04;3.07;;;1.57;;
9465;SDS011;4771;48.726;9.006;2024-03-23T15:07:32;7.10;;;1.80;;
9465;SDS011;4771;48.726;9.006;2024-03-23T15:09:59;3.83;;;1.53;;
9465;SDS011;4771;48.726;9.006;2024-03-23T15:12:26;4.13;;;1.70;;
9465;SDS011;4771;48.726;9.006;2024-03-23T15:14:53;7.10;;;2.00;;
9465;SDS011;4771;48.726;9.006;2024-03-23T15:17:19;4.47;;;2.00;;
9465;SDS011;4771;48.726;9.006;2024-03-23T15:19:46;3.30;;;1.70;;
9465;SDS011;4771;48.726;9.006;2024-03-23T15:22:12;3.43;;;1.60;;
9465;SDS011;4771;48.726;9.006;2024-03-23T15:24:39;4.13;;;2.40;;
9465;SDS011;4771;48.726;9.006;2024-03-23T15:27:04;5.80;;;2.07;;
9465;SDS011;4771;48.726;9.006;2024-03-23T15:29:35;4.07;;;1.67;;
9465;SDS011;4771;48.726;9.006;2024-03-23T15:32:01;1.87;;;1.30;;
9465;SDS011;4771;48.726;9.006;2024-03-23T15:34:28;3.77;;;1.67;;
9465;SDS011;4771;48.726;9.006;2024-03-23T15:36:54;4.17;;;1.60;;
9465;SDS011;4771;48.726;9.006;2024-03-23T15:39:21;4.93;;;1.67;;
9465;SDS011;4771;48.726;9.006;2024-03-23T15:41:47;3.13;;;2.10;;
9465;SDS011;4771;48.726;9.006;2024-03-23T15:44:14;6.93;;;2.70;;
9465;SDS011;4771;48.726;9.006;2024-03-23T15:46:42;3.80;;;1.50;;
9465;SDS011;4771;48.726;9.006;2024-03-23T15:49:08;3.47;;;2.00;;
9465;SDS011;4771;48.726;9.006;2024-03-23T15:51:34;6.20;;;3.10;;
9465;SDS011;4771;48.726;9.006;2024-03-23T15:54:02;4.73;;;2.10;;
9465;SDS011;4771;48.726;9.006;2024-03-23T15:56:28;3.20;;;1.67;;
9465;SDS011;4771;48.726;9.006;2024-03-23T15:58:55;2.37;;;1.70;;
9465;SDS011;4771;48.726;9.006;2024-03-23T16:01:27;2.23;;;1.00;;
9465;SDS011;4771;48.726;9.006;2024-03-23T16:03:55;1.80;;;1.10;;
9465;SDS011;4771;48.726;9.006;2024-03-23T16:06:21;1.50;;;1.20;;
9465;SDS011;4771;48.726;9.006;2024-03-23T16:08:48;2.87;;;1.17;;
9465;SDS011;4771;48.726;9.006;2024-03-23T16:11:14;3.63;;;1.10;;